createdAt,value
2016-12-11T00:00:07.949Z,920.68
2016-12-11T00:00:36.159Z,920.69
2016-12-11T00:01:04.238Z,920.67
2016-12-11T00:01:32.297Z,920.69
2016-12-11T00:02:00.311Z,920.65
2016-12-11T00:02:28.531Z,920.67
2016-12-11T00:02:56.469Z,920.66
2016-12-11T00:03:24.566Z,920.7
2016-12-11T00:04:35.764Z,920.69
2016-12-11T00:05:03.817Z,920.71
2016-12-11T00:05:32.104Z,920.69
2016-12-11T00:06:00.337Z,920.7
2016-12-11T00:06:28.550Z,920.64
2016-12-11T00:06:56.821Z,920.62
2016-12-11T00:07:24.884Z,920.64
2016-12-11T00:07:53.177Z,920.64
2016-12-11T00:08:21.402Z,920.61
2016-12-11T00:08:49.618Z,920.62
2016-12-11T00:09:17.806Z,920.62
2016-12-11T00:10:29.007Z,920.65
2016-12-11T00:10:57.341Z,920.62
2016-12-11T00:11:25.510Z,920.63
2016-12-11T00:11:53.689Z,920.65
2016-12-11T00:12:21.986Z,920.68
2016-12-11T00:12:50.249Z,920.75
2016-12-11T00:13:18.307Z,920.7
2016-12-11T00:13:46.509Z,920.74
2016-12-11T00:14:14.739Z,920.75
2016-12-11T00:14:42.948Z,920.76
2016-12-11T00:15:11.235Z,920.75
2016-12-11T00:16:22.339Z,920.77
2016-12-11T00:16:50.669Z,920.81
2016-12-11T00:17:18.957Z,920.8
2016-12-11T00:17:47.281Z,920.73
2016-12-11T00:18:15.589Z,920.77
2016-12-11T00:18:43.854Z,920.82
2016-12-11T00:19:11.917Z,920.82
2016-12-11T00:19:40.208Z,920.84
2016-12-11T00:20:08.525Z,920.84
2016-12-11T00:20:36.837Z,920.85
2016-12-11T00:21:05.117Z,920.86
2016-12-11T00:22:16.221Z,920.9
2016-12-11T00:22:44.457Z,920.86
2016-12-11T00:23:12.651Z,920.93
2016-12-11T00:23:40.791Z,920.88
2016-12-11T00:24:09.095Z,920.92
2016-12-11T00:24:37.263Z,920.92
2016-12-11T00:25:05.507Z,920.87
2016-12-11T00:25:33.704Z,920.89
2016-12-11T00:26:02.018Z,920.94
2016-12-11T00:26:30.139Z,920.93
2016-12-11T00:26:58.326Z,920.96
2016-12-11T00:28:09.529Z,920.96
2016-12-11T00:28:37.673Z,921.02
2016-12-11T00:29:05.962Z,921
2016-12-11T00:29:34.193Z,921.01
2016-12-11T00:30:02.402Z,921.02
2016-12-11T00:30:30.479Z,921.03
2016-12-11T00:30:58.728Z,921.08
2016-12-11T00:31:26.836Z,921.07
2016-12-11T00:31:55.059Z,921.08
2016-12-11T00:32:23.269Z,921.05
2016-12-11T00:32:51.454Z,921.05
2016-12-11T00:34:02.559Z,921.08
2016-12-11T00:34:30.797Z,921.06
2016-12-11T00:34:59.085Z,921.05
2016-12-11T00:35:27.311Z,921.05
2016-12-11T00:35:55.612Z,921.01
2016-12-11T00:36:23.692Z,921
2016-12-11T00:36:51.940Z,921.02
2016-12-11T00:37:20.234Z,921.03
2016-12-11T00:37:48.552Z,920.96
2016-12-11T00:38:16.858Z,920.95
2016-12-11T00:38:45.135Z,920.95
2016-12-11T00:39:56.241Z,920.93
2016-12-11T00:40:24.570Z,920.93
2016-12-11T00:40:52.589Z,920.95
2016-12-11T00:41:20.812Z,920.95
2016-12-11T00:41:48.928Z,920.95
2016-12-11T00:42:17.102Z,920.96
2016-12-11T00:42:45.257Z,920.94
2016-12-11T00:43:13.453Z,920.97
2016-12-11T00:43:41.675Z,920.98
2016-12-11T00:44:09.795Z,920.97
2016-12-11T00:44:38.072Z,920.96
2016-12-11T00:45:49.176Z,920.98
2016-12-11T00:46:17.316Z,920.95
2016-12-11T00:46:45.424Z,921.04
2016-12-11T00:47:13.554Z,921.02
2016-12-11T00:47:41.667Z,921.01
2016-12-11T00:48:09.745Z,921.03
2016-12-11T00:48:37.802Z,921.02
2016-12-11T00:49:06.090Z,921.01
2016-12-11T00:49:34.311Z,920.99
2016-12-11T00:50:02.431Z,920.92
2016-12-11T00:50:30.715Z,920.91
2016-12-11T00:51:41.940Z,920.9
2016-12-11T00:52:10.178Z,920.91
2016-12-11T00:52:38.279Z,920.88
2016-12-11T00:53:06.418Z,920.89
2016-12-11T00:53:34.717Z,920.86
2016-12-11T00:54:02.708Z,920.87
2016-12-11T00:54:30.769Z,920.89
2016-12-11T00:54:58.973Z,920.83
2016-12-11T00:55:27.288Z,920.88
2016-12-11T00:55:55.503Z,920.87
2016-12-11T00:56:23.596Z,920.93
2016-12-11T00:57:34.885Z,920.91
2016-12-11T00:58:03.121Z,920.88
2016-12-11T00:58:31.313Z,920.86
2016-12-11T00:58:59.546Z,920.87
2016-12-11T00:59:27.847Z,920.89
2016-12-11T00:59:55.924Z,920.9
2016-12-11T01:00:24.171Z,920.87
2016-12-11T01:00:52.466Z,920.91
2016-12-11T01:01:20.785Z,920.91
2016-12-11T01:01:49.091Z,920.93
2016-12-11T01:02:17.381Z,920.93
2016-12-11T01:03:28.669Z,920.91
2016-12-11T01:03:56.909Z,920.93
2016-12-11T01:04:25.103Z,920.96
2016-12-11T01:04:53.334Z,921.01
2016-12-11T01:05:21.635Z,920.99
2016-12-11T01:05:49.905Z,920.99
2016-12-11T01:06:17.966Z,921.02
2016-12-11T01:06:46.165Z,920.99
2016-12-11T01:07:14.482Z,920.97
2016-12-11T01:07:42.788Z,921
2016-12-11T01:08:10.886Z,920.94
2016-12-11T01:09:22.180Z,920.94
2016-12-11T01:09:50.417Z,920.88
2016-12-11T01:10:18.606Z,920.88
2016-12-11T01:10:46.832Z,920.91
2016-12-11T01:11:15.129Z,920.88
2016-12-11T01:11:43.307Z,920.82
2016-12-11T01:12:11.271Z,920.86
2016-12-11T01:12:39.286Z,920.78
2016-12-11T01:13:07.516Z,920.77
2016-12-11T01:13:35.733Z,920.8
2016-12-11T01:14:04.017Z,920.75
2016-12-11T01:15:15.036Z,920.77
2016-12-11T01:15:43.275Z,920.77
2016-12-11T01:16:11.558Z,920.74
2016-12-11T01:16:39.883Z,920.74
2016-12-11T01:17:08.186Z,920.73
2016-12-11T01:17:36.359Z,920.75
2016-12-11T01:18:04.420Z,920.68
2016-12-11T01:18:32.531Z,920.68
2016-12-11T01:19:00.657Z,920.72
2016-12-11T01:19:28.871Z,920.74
2016-12-11T01:19:56.967Z,920.72
2016-12-11T01:21:08.169Z,920.71
2016-12-11T01:21:36.407Z,920.71
2016-12-11T01:22:04.691Z,920.71
2016-12-11T01:22:32.920Z,920.74
2016-12-11T01:23:01.131Z,920.74
2016-12-11T01:23:29.397Z,920.77
2016-12-11T01:23:57.453Z,920.75
2016-12-11T01:24:25.469Z,920.73
2016-12-11T01:24:53.691Z,920.76
2016-12-11T01:25:21.813Z,920.74
2016-12-11T01:25:49.903Z,920.76
2016-12-11T01:27:01.096Z,920.74
2016-12-11T01:27:29.339Z,920.72
2016-12-11T01:27:57.350Z,920.73
2016-12-11T01:28:25.490Z,920.73
2016-12-11T01:28:53.701Z,920.71
2016-12-11T01:29:21.969Z,920.67
2016-12-11T01:29:50.048Z,920.71
2016-12-11T01:30:18.060Z,920.72
2016-12-11T01:30:46.188Z,920.74
2016-12-11T01:31:14.500Z,920.72
2016-12-11T01:31:42.690Z,920.76
2016-12-11T01:32:53.890Z,920.74
2016-12-11T01:33:22.037Z,920.75
2016-12-11T01:33:50.231Z,920.76
2016-12-11T01:34:18.368Z,920.76
2016-12-11T01:34:46.571Z,920.76
2016-12-11T01:35:14.653Z,920.74
2016-12-11T01:35:42.717Z,920.8
2016-12-11T01:36:10.916Z,920.76
2016-12-11T01:36:39.235Z,920.74
2016-12-11T01:37:07.357Z,920.75
2016-12-11T01:37:35.639Z,920.77
2016-12-11T01:38:46.842Z,920.77
2016-12-11T01:39:15.167Z,920.76
2016-12-11T01:39:43.360Z,920.76
2016-12-11T01:40:11.679Z,920.79
2016-12-11T01:40:39.797Z,920.81
2016-12-11T01:41:07.973Z,920.79
2016-12-11T01:41:36.032Z,920.79
2016-12-11T01:42:04.235Z,920.78
2016-12-11T01:42:32.450Z,920.8
2016-12-11T01:43:00.756Z,920.85
2016-12-11T01:43:28.852Z,920.85
2016-12-11T01:44:39.860Z,920.83
2016-12-11T01:45:08.009Z,920.86
2016-12-11T01:45:36.012Z,920.85
2016-12-11T01:46:04.062Z,920.78
2016-12-11T01:46:32.276Z,920.82
2016-12-11T01:47:00.459Z,920.81
2016-12-11T01:47:28.612Z,920.8
2016-12-11T01:47:56.904Z,920.84
2016-12-11T01:48:25.221Z,920.81
2016-12-11T01:48:53.433Z,920.78
2016-12-11T01:49:21.628Z,920.74
2016-12-11T01:50:32.730Z,920.79
2016-12-11T01:51:00.872Z,920.76
2016-12-11T01:51:29.064Z,920.81
2016-12-11T01:51:57.194Z,920.8
2016-12-11T01:52:25.313Z,920.8
2016-12-11T01:52:53.394Z,920.81
2016-12-11T01:53:21.260Z,920.78
2016-12-11T01:53:49.371Z,920.82
2016-12-11T01:54:17.497Z,920.81
2016-12-11T01:54:45.613Z,920.83
2016-12-11T01:55:13.802Z,920.83
2016-12-11T01:56:24.908Z,920.84
2016-12-11T01:56:53.142Z,920.78
2016-12-11T01:57:21.336Z,920.8
2016-12-11T01:57:49.467Z,920.82
2016-12-11T01:58:17.396Z,920.79
2016-12-11T01:58:45.658Z,920.77
2016-12-11T01:59:13.719Z,920.69
2016-12-11T01:59:41.824Z,920.73
2016-12-11T02:00:09.949Z,920.73
2016-12-11T02:00:38.165Z,920.73
2016-12-11T02:01:06.350Z,920.75
2016-12-11T02:02:17.364Z,920.74
2016-12-11T02:02:45.506Z,920.73
2016-12-11T02:03:13.519Z,920.73
2016-12-11T02:03:41.560Z,920.69
2016-12-11T02:04:09.861Z,920.67
2016-12-11T02:04:37.755Z,920.68
2016-12-11T02:05:05.807Z,920.66
2016-12-11T02:05:33.819Z,920.64
2016-12-11T02:06:02.129Z,920.65
2016-12-11T02:06:30.247Z,920.63
2016-12-11T02:06:58.152Z,920.64
2016-12-11T02:08:09.167Z,920.59
2016-12-11T02:08:37.129Z,920.6
2016-12-11T02:09:05.323Z,920.56
2016-12-11T02:09:33.644Z,920.56
2016-12-11T02:10:01.848Z,920.57
2016-12-11T02:10:30.026Z,920.6
2016-12-11T02:10:58.176Z,920.56
2016-12-11T02:11:26.188Z,920.56
2016-12-11T02:11:54.244Z,920.51
2016-12-11T02:12:22.360Z,920.54
2016-12-11T02:12:50.450Z,920.51
2016-12-11T02:14:01.551Z,920.58
2016-12-11T02:14:29.783Z,920.52
2016-12-11T02:14:57.792Z,920.55
2016-12-11T02:15:26.021Z,920.53
2016-12-11T02:15:54.317Z,920.47
2016-12-11T02:16:22.488Z,920.46
2016-12-11T02:16:50.542Z,920.41
2016-12-11T02:17:18.742Z,920.43
2016-12-11T02:17:46.962Z,920.41
2016-12-11T02:18:15.172Z,920.38
2016-12-11T02:18:43.358Z,920.37
2016-12-11T02:19:54.556Z,920.36
2016-12-11T02:20:22.511Z,920.35
2016-12-11T02:20:50.513Z,920.34
2016-12-11T02:21:18.831Z,920.35
2016-12-11T02:21:46.951Z,920.34
2016-12-11T02:22:14.932Z,920.35
2016-12-11T02:22:43.083Z,920.37
2016-12-11T02:23:11.278Z,920.37
2016-12-11T02:23:39.403Z,920.35
2016-12-11T02:24:07.614Z,920.35
2016-12-11T02:24:35.796Z,920.31
2016-12-11T02:25:46.710Z,920.34
2016-12-11T02:26:14.944Z,920.28
2016-12-11T02:26:43.224Z,920.31
2016-12-11T02:27:11.268Z,920.26
2016-12-11T02:27:39.379Z,920.27
2016-12-11T02:28:07.551Z,920.31
2016-12-11T02:28:35.797Z,920.3
2016-12-11T02:29:03.802Z,920.29
2016-12-11T02:29:31.863Z,920.26
2016-12-11T02:30:00.166Z,920.28
2016-12-11T02:30:28.443Z,920.26
2016-12-11T02:31:39.550Z,920.25
2016-12-11T02:32:07.878Z,920.23
2016-12-11T02:32:35.880Z,920.26
2016-12-11T02:33:03.919Z,920.26
2016-12-11T02:33:32.027Z,920.24
2016-12-11T02:34:00.196Z,920.21
2016-12-11T02:34:28.257Z,920.23
2016-12-11T02:34:56.454Z,920.23
2016-12-11T02:35:24.675Z,920.24
2016-12-11T02:35:52.800Z,920.19
2016-12-11T02:36:20.798Z,920.19
2016-12-11T02:37:31.991Z,920.19
2016-12-11T02:38:00.035Z,920.23
2016-12-11T02:38:28.125Z,920.19
2016-12-11T02:38:56.160Z,920.23
2016-12-11T02:39:24.364Z,920.22
2016-12-11T02:39:52.626Z,920.22
2016-12-11T02:40:20.774Z,920.23
2016-12-11T02:40:48.880Z,920.19
2016-12-11T02:41:17.002Z,920.19
2016-12-11T02:41:44.942Z,920.2
2016-12-11T02:42:13.031Z,920.19
2016-12-11T02:43:24.227Z,920.14
2016-12-11T02:43:52.369Z,920.12
2016-12-11T02:44:20.196Z,920.1
2016-12-11T02:44:48.424Z,920.12
2016-12-11T02:45:16.446Z,920.12
2016-12-11T02:45:44.530Z,920.11
2016-12-11T02:46:12.500Z,920.09
2016-12-11T02:46:40.695Z,920.12
2016-12-11T02:47:08.829Z,920.12
2016-12-11T02:47:36.938Z,920.1
2016-12-11T02:48:05.215Z,920.11
2016-12-11T02:49:16.408Z,920.15
2016-12-11T02:49:44.640Z,920.12
2016-12-11T02:50:12.644Z,920.14
2016-12-11T02:50:40.875Z,920.13
2016-12-11T02:51:09.078Z,920.16
2016-12-11T02:51:37.066Z,920.17
2016-12-11T02:52:05.219Z,920.17
2016-12-11T02:52:33.415Z,920.17
2016-12-11T02:53:01.552Z,920.16
2016-12-11T02:53:29.763Z,920.16
2016-12-11T02:53:57.947Z,920.16
2016-12-11T02:55:09.140Z,920.13
2016-12-11T02:55:37.372Z,920.1
2016-12-11T02:56:05.472Z,920.09
2016-12-11T02:56:33.512Z,920.07
2016-12-11T02:57:01.715Z,920.1
2016-12-11T02:57:29.891Z,920.08
2016-12-11T02:57:58.037Z,920.07
2016-12-11T02:58:26.234Z,920.06
2016-12-11T02:58:54.453Z,920.07
2016-12-11T02:59:22.570Z,920.06
2016-12-11T02:59:50.655Z,920
2016-12-11T03:01:01.778Z,920.01
2016-12-11T03:01:30.016Z,920
2016-12-11T03:01:58.018Z,920.02
2016-12-11T03:02:26.240Z,920.02
2016-12-11T03:02:54.536Z,919.98
2016-12-11T03:03:22.801Z,919.96
2016-12-11T03:03:50.768Z,919.91
2016-12-11T03:04:18.778Z,919.91
2016-12-11T03:04:46.996Z,919.91
2016-12-11T03:05:15.302Z,919.92
2016-12-11T03:05:43.492Z,919.87
2016-12-11T03:06:54.684Z,919.87
2016-12-11T03:07:22.916Z,919.88
2016-12-11T03:07:51.010Z,919.82
2016-12-11T03:08:19.141Z,919.81
2016-12-11T03:08:47.252Z,919.76
2016-12-11T03:09:15.423Z,919.74
2016-12-11T03:09:43.573Z,919.75
2016-12-11T03:10:11.769Z,919.72
2016-12-11T03:10:39.989Z,919.75
2016-12-11T03:11:08.200Z,919.72
2016-12-11T03:11:36.196Z,919.72
2016-12-11T03:12:47.302Z,919.75
2016-12-11T03:13:15.538Z,919.75
2016-12-11T03:13:43.673Z,919.74
2016-12-11T03:14:11.897Z,919.72
2016-12-11T03:14:40.192Z,919.74
2016-12-11T03:15:08.374Z,919.73
2016-12-11T03:15:36.241Z,919.77
2016-12-11T03:16:04.440Z,919.72
2016-12-11T03:16:32.661Z,919.72
2016-12-11T03:17:00.777Z,919.7
2016-12-11T03:17:28.962Z,919.75
2016-12-11T03:18:40.156Z,919.68
2016-12-11T03:19:08.293Z,919.74
2016-12-11T03:19:36.391Z,919.74
2016-12-11T03:20:04.522Z,919.73
2016-12-11T03:20:32.539Z,919.7
2016-12-11T03:21:00.713Z,919.73
2016-12-11T03:21:28.863Z,919.73
2016-12-11T03:21:57.154Z,919.73
2016-12-11T03:22:25.285Z,919.7
2016-12-11T03:22:53.395Z,919.74
2016-12-11T03:23:21.581Z,919.7
2016-12-11T03:24:32.870Z,919.71
2016-12-11T03:25:01.197Z,919.67
2016-12-11T03:25:29.204Z,919.67
2016-12-11T03:25:57.333Z,919.69
2016-12-11T03:26:25.536Z,919.65
2016-12-11T03:26:53.609Z,919.69
2016-12-11T03:27:21.481Z,919.68
2016-12-11T03:27:49.586Z,919.66
2016-12-11T03:28:17.713Z,919.68
2016-12-11T03:28:46.015Z,919.67
2016-12-11T03:29:14.108Z,919.69
2016-12-11T03:30:25.302Z,919.68
2016-12-11T03:30:53.534Z,919.66
2016-12-11T03:31:21.538Z,919.65
2016-12-11T03:31:49.570Z,919.67
2016-12-11T03:32:17.866Z,919.65
2016-12-11T03:32:45.854Z,919.66
2016-12-11T03:33:13.815Z,919.69
2016-12-11T03:33:41.917Z,919.68
2016-12-11T03:34:10.039Z,919.7
2016-12-11T03:34:38.154Z,919.68
2016-12-11T03:35:06.432Z,919.68
2016-12-11T03:36:17.620Z,919.7
2016-12-11T03:36:45.856Z,919.69
2016-12-11T03:37:14.048Z,919.71
2016-12-11T03:37:42.270Z,919.68
2016-12-11T03:38:10.199Z,919.62
2016-12-11T03:38:38.278Z,919.68
2016-12-11T03:39:06.426Z,919.65
2016-12-11T03:39:34.531Z,919.66
2016-12-11T03:40:02.844Z,919.64
2016-12-11T03:40:31.056Z,919.64
2016-12-11T03:40:59.150Z,919.66
2016-12-11T03:42:10.439Z,919.63
2016-12-11T03:42:38.675Z,919.59
2016-12-11T03:43:06.867Z,919.6
2016-12-11T03:43:35.180Z,919.56
2016-12-11T03:44:03.294Z,919.56
2016-12-11T03:44:31.462Z,919.54
2016-12-11T03:44:59.517Z,919.49
2016-12-11T03:45:27.711Z,919.51
2016-12-11T03:45:55.932Z,919.52
2016-12-11T03:46:24.140Z,919.51
2016-12-11T03:46:52.414Z,919.46
2016-12-11T03:48:03.701Z,919.51
2016-12-11T03:48:31.939Z,919.48
2016-12-11T03:49:00.040Z,919.52
2016-12-11T03:49:28.174Z,919.54
2016-12-11T03:49:56.375Z,919.52
2016-12-11T03:50:24.457Z,919.52
2016-12-11T03:50:52.699Z,919.5
2016-12-11T03:51:20.894Z,919.48
2016-12-11T03:51:48.929Z,919.47
2016-12-11T03:52:17.230Z,919.47
2016-12-11T03:52:45.402Z,919.47
2016-12-11T03:53:56.710Z,919.47
2016-12-11T03:54:24.951Z,919.47
2016-12-11T03:54:53.049Z,919.46
2016-12-11T03:55:21.272Z,919.49
2016-12-11T03:55:49.289Z,919.47
2016-12-11T03:56:17.367Z,919.46
2016-12-11T03:56:45.429Z,919.51
2016-12-11T03:57:13.618Z,919.5
2016-12-11T03:57:41.748Z,919.52
2016-12-11T03:58:09.685Z,919.52
2016-12-11T03:58:37.674Z,919.49
2016-12-11T03:59:48.702Z,919.51
2016-12-11T04:00:16.914Z,919.47
2016-12-11T04:00:44.916Z,919.5
2016-12-11T04:01:12.957Z,919.48
2016-12-11T04:01:40.888Z,919.47
2016-12-11T04:02:09.057Z,919.47
2016-12-11T04:02:37.115Z,919.46
2016-12-11T04:03:05.129Z,919.48
2016-12-11T04:03:33.446Z,919.48
2016-12-11T04:04:01.752Z,919.49
2016-12-11T04:04:30.028Z,919.45
2016-12-11T04:05:41.130Z,919.5
2016-12-11T04:06:09.273Z,919.49
2016-12-11T04:06:37.555Z,919.48
2016-12-11T04:07:05.783Z,919.5
2016-12-11T04:07:34.082Z,919.45
2016-12-11T04:08:02.168Z,919.46
2016-12-11T04:08:30.131Z,919.5
2016-12-11T04:08:58.591Z,919.46
2016-12-11T04:09:26.823Z,919.46
2016-12-11T04:09:54.845Z,919.43
2016-12-11T04:10:22.939Z,919.46
2016-12-11T04:11:34.130Z,919.4
2016-12-11T04:12:02.377Z,919.38
2016-12-11T04:12:30.472Z,919.39
2016-12-11T04:12:58.505Z,919.38
2016-12-11T04:13:26.621Z,919.38
2016-12-11T04:13:54.884Z,919.34
2016-12-11T04:14:23.034Z,919.33
2016-12-11T04:14:51.048Z,919.35
2016-12-11T04:15:19.267Z,919.34
2016-12-11T04:15:47.479Z,919.34
2016-12-11T04:16:15.472Z,919.35
2016-12-11T04:17:26.668Z,919.23
2016-12-11T04:17:54.901Z,919.22
2016-12-11T04:18:23.002Z,919.25
2016-12-11T04:18:51.134Z,919.31
2016-12-11T04:19:19.054Z,919.24
2016-12-11T04:19:47.139Z,919.34
2016-12-11T04:20:15.293Z,919.31
2016-12-11T04:20:43.581Z,919.26
2016-12-11T04:21:11.704Z,919.24
2016-12-11T04:21:39.728Z,919.29
2016-12-11T04:22:08.007Z,919.27
2016-12-11T04:23:19.111Z,919.29
2016-12-11T04:23:47.162Z,919.28
2016-12-11T04:24:15.160Z,919.26
2016-12-11T04:24:43.199Z,919.29
2016-12-11T04:25:11.406Z,919.23
2016-12-11T04:25:39.671Z,919.24
2016-12-11T04:26:07.727Z,919.27
2016-12-11T04:26:36.016Z,919.3
2016-12-11T04:27:04.144Z,919.28
2016-12-11T04:27:32.263Z,919.29
2016-12-11T04:28:00.438Z,919.27
2016-12-11T04:29:11.448Z,919.24
2016-12-11T04:29:39.682Z,919.2
2016-12-11T04:30:07.686Z,919.26
2016-12-11T04:30:35.915Z,919.18
2016-12-11T04:31:04.031Z,919.22
2016-12-11T04:31:32.293Z,919.25
2016-12-11T04:32:00.533Z,919.21
2016-12-11T04:32:28.821Z,919.21
2016-12-11T04:32:56.951Z,919.22
2016-12-11T04:33:25.062Z,919.23
2016-12-11T04:33:53.243Z,919.26
2016-12-11T04:35:04.347Z,919.26
2016-12-11T04:35:32.581Z,919.27
2016-12-11T04:36:00.778Z,919.26
2016-12-11T04:36:29.092Z,919.26
2016-12-11T04:36:57.204Z,919.29
2016-12-11T04:37:25.375Z,919.27
2016-12-11T04:37:53.432Z,919.24
2016-12-11T04:38:21.633Z,919.3
2016-12-11T04:38:49.950Z,919.3
2016-12-11T04:39:17.970Z,919.33
2016-12-11T04:39:46.244Z,919.3
2016-12-11T04:40:57.346Z,919.29
2016-12-11T04:41:25.489Z,919.21
2016-12-11T04:41:53.487Z,919.19
2016-12-11T04:42:21.715Z,919.09
2016-12-11T04:42:49.915Z,919.17
2016-12-11T04:43:18.091Z,919.15
2016-12-11T04:43:46.150Z,919.18
2016-12-11T04:44:14.350Z,919.14
2016-12-11T04:44:42.392Z,919.17
2016-12-11T04:45:10.421Z,919.21
2016-12-11T04:45:38.412Z,919.19
2016-12-11T04:46:49.519Z,919.21
2016-12-11T04:47:17.753Z,919.17
2016-12-11T04:47:45.759Z,919.16
2016-12-11T04:48:13.892Z,919.14
2016-12-11T04:48:42.099Z,919.15
2016-12-11T04:49:10.174Z,919.18
2016-12-11T04:49:38.228Z,919.15
2016-12-11T04:50:06.236Z,919.12
2016-12-11T04:50:34.453Z,919.12
2016-12-11T04:51:02.390Z,919.12
2016-12-11T04:51:30.296Z,919.12
2016-12-11T04:52:41.396Z,919.12
2016-12-11T04:53:09.536Z,919.09
2016-12-11T04:53:37.726Z,919.09
2016-12-11T04:54:05.762Z,919.09
2016-12-11T04:54:33.971Z,919.02
2016-12-11T04:55:02.136Z,919.03
2016-12-11T04:55:30.286Z,919
2016-12-11T04:55:58.579Z,919
2016-12-11T04:56:26.800Z,918.93
2016-12-11T04:56:55.101Z,918.99
2016-12-11T04:57:23.099Z,918.96
2016-12-11T04:58:34.288Z,918.96
2016-12-11T04:59:02.431Z,919.01
2016-12-11T04:59:30.533Z,919.02
2016-12-11T04:59:58.668Z,919.03
2016-12-11T05:00:26.779Z,919.01
2016-12-11T05:00:54.955Z,919.03
2016-12-11T05:01:23.007Z,919
2016-12-11T05:01:51.201Z,918.98
2016-12-11T05:02:19.443Z,919.02
2016-12-11T05:02:47.634Z,918.96
2016-12-11T05:03:15.817Z,918.95
2016-12-11T05:04:26.823Z,918.97
2016-12-11T05:04:54.966Z,918.94
2016-12-11T05:05:23.250Z,918.93
2016-12-11T05:05:51.286Z,918.93
2016-12-11T05:06:19.493Z,918.89
2016-12-11T05:06:47.568Z,918.89
2016-12-11T05:07:15.812Z,918.83
2016-12-11T05:07:44.009Z,918.85
2016-12-11T05:08:12.228Z,918.8
2016-12-11T05:08:40.437Z,918.88
2016-12-11T05:09:08.616Z,918.85
2016-12-11T05:10:19.627Z,918.83
2016-12-11T05:10:47.768Z,918.82
2016-12-11T05:11:15.864Z,918.85
2016-12-11T05:11:43.990Z,918.84
2016-12-11T05:12:12.101Z,918.86
2016-12-11T05:12:40.367Z,918.84
2016-12-11T05:13:08.427Z,918.85
2016-12-11T05:13:36.437Z,918.81
2016-12-11T05:14:04.656Z,918.84
2016-12-11T05:14:32.865Z,918.84
2016-12-11T05:15:00.964Z,918.88
2016-12-11T05:16:12.256Z,918.89
2016-12-11T05:16:40.397Z,918.88
2016-12-11T05:17:08.592Z,918.9
2016-12-11T05:17:36.912Z,918.9
2016-12-11T05:18:05.124Z,918.92
2016-12-11T05:18:33.211Z,918.88
2016-12-11T05:19:01.452Z,918.9
2016-12-11T05:19:29.562Z,918.94
2016-12-11T05:19:57.783Z,918.92
2016-12-11T05:20:25.992Z,918.9
2016-12-11T05:20:54.269Z,918.91
2016-12-11T05:22:05.374Z,918.92
2016-12-11T05:22:33.609Z,918.95
2016-12-11T05:23:01.715Z,918.91
2016-12-11T05:23:29.667Z,918.94
2016-12-11T05:23:57.964Z,918.91
2016-12-11T05:24:26.141Z,918.93
2016-12-11T05:24:54.405Z,918.9
2016-12-11T05:25:22.399Z,918.92
2016-12-11T05:25:50.615Z,918.88
2016-12-11T05:26:18.735Z,918.95
2016-12-11T05:26:46.827Z,918.93
2016-12-11T05:27:57.924Z,918.96
2016-12-11T05:28:26.165Z,918.94
2016-12-11T05:28:54.268Z,918.91
2016-12-11T05:29:22.494Z,918.88
2016-12-11T05:29:50.793Z,918.89
2016-12-11T05:30:18.966Z,918.88
2016-12-11T05:30:47.025Z,918.91
2016-12-11T05:31:15.316Z,918.87
2016-12-11T05:31:43.448Z,918.86
2016-12-11T05:32:11.556Z,918.85
2016-12-11T05:32:39.657Z,918.89
2016-12-11T05:33:50.949Z,918.86
2016-12-11T05:34:19.187Z,918.87
2016-12-11T05:34:47.374Z,918.84
2016-12-11T05:35:15.413Z,918.84
2016-12-11T05:35:43.616Z,918.85
2016-12-11T05:36:11.696Z,918.8
2016-12-11T05:36:39.661Z,918.82
2016-12-11T05:37:07.766Z,918.8
2016-12-11T05:37:35.900Z,918.81
2016-12-11T05:38:03.833Z,918.77
2016-12-11T05:38:32.018Z,918.77
2016-12-11T05:39:43.214Z,918.76
2016-12-11T05:40:11.539Z,918.76
2016-12-11T05:40:39.728Z,918.77
2016-12-11T05:41:07.768Z,918.76
2016-12-11T05:41:35.883Z,918.74
2016-12-11T05:42:04.057Z,918.73
2016-12-11T05:42:32.209Z,918.76
2016-12-11T05:43:00.408Z,918.73
2016-12-11T05:43:28.634Z,918.72
2016-12-11T05:43:56.944Z,918.73
2016-12-11T05:44:25.038Z,918.72
2016-12-11T05:45:36.142Z,918.73
2016-12-11T05:46:04.467Z,918.77
2016-12-11T05:46:32.568Z,918.75
2016-12-11T05:47:00.893Z,918.75
2016-12-11T05:47:29.188Z,918.75
2016-12-11T05:47:57.268Z,918.7
2016-12-11T05:48:25.322Z,918.7
2016-12-11T05:48:53.428Z,918.74
2016-12-11T05:49:21.742Z,918.72
2016-12-11T05:49:49.863Z,918.7
2016-12-11T05:50:18.046Z,918.72
2016-12-11T05:51:29.244Z,918.74
2016-12-11T05:51:57.578Z,918.71
2016-12-11T05:52:25.766Z,918.7
2016-12-11T05:52:53.809Z,918.69
2016-12-11T05:53:22.016Z,918.7
2016-12-11T05:53:50.091Z,918.7
2016-12-11T05:54:18.244Z,918.72
2016-12-11T05:54:46.534Z,918.72
2016-12-11T05:55:14.762Z,918.69
2016-12-11T05:55:42.976Z,918.7
2016-12-11T05:56:11.063Z,918.68
2016-12-11T05:57:22.160Z,918.69
2016-12-11T05:57:50.493Z,918.66
2016-12-11T05:58:18.680Z,918.67
2016-12-11T05:58:46.906Z,918.66
2016-12-11T05:59:15.113Z,918.65
2016-12-11T05:59:43.284Z,918.66
2016-12-11T06:00:11.339Z,918.66
2016-12-11T06:00:39.442Z,918.64
2016-12-11T06:01:07.759Z,918.65
2016-12-11T06:01:35.975Z,918.64
2016-12-11T06:02:04.072Z,918.6
2016-12-11T06:03:15.372Z,918.57
2016-12-11T06:03:43.514Z,918.56
2016-12-11T06:04:11.667Z,918.56
2016-12-11T06:04:39.798Z,918.56
2016-12-11T06:05:08.105Z,918.55
2016-12-11T06:05:36.179Z,918.55
2016-12-11T06:06:04.148Z,918.56
2016-12-11T06:06:32.347Z,918.58
2016-12-11T06:07:00.566Z,918.53
2016-12-11T06:07:28.876Z,918.53
2016-12-11T06:07:57.061Z,918.51
2016-12-11T06:09:08.167Z,918.51
2016-12-11T06:09:36.404Z,918.53
2016-12-11T06:10:04.500Z,918.55
2016-12-11T06:10:32.817Z,918.56
2016-12-11T06:11:01.034Z,918.56
2016-12-11T06:11:29.296Z,918.55
2016-12-11T06:11:57.444Z,918.57
2016-12-11T06:12:25.646Z,918.56
2016-12-11T06:12:54.445Z,918.55
2016-12-11T06:13:22.568Z,918.58
2016-12-11T06:13:50.748Z,918.54
2016-12-11T06:15:02.034Z,918.56
2016-12-11T06:15:30.086Z,918.55
2016-12-11T06:15:58.292Z,918.55
2016-12-11T06:16:26.423Z,918.55
2016-12-11T06:16:54.728Z,918.52
2016-12-11T06:17:22.991Z,918.52
2016-12-11T06:17:50.963Z,918.5
2016-12-11T06:18:19.066Z,918.51
2016-12-11T06:18:47.383Z,918.51
2016-12-11T06:19:15.688Z,918.51
2016-12-11T06:19:43.963Z,918.55
2016-12-11T06:20:55.067Z,918.56
2016-12-11T06:21:23.399Z,918.55
2016-12-11T06:21:51.503Z,918.54
2016-12-11T06:22:19.822Z,918.55
2016-12-11T06:22:48.027Z,918.53
2016-12-11T06:23:16.109Z,918.58
2016-12-11T06:23:44.355Z,918.54
2016-12-11T06:24:12.461Z,918.53
2016-12-11T06:24:40.682Z,918.56
2016-12-11T06:25:08.891Z,918.57
2016-12-11T06:25:37.168Z,918.47
2016-12-11T06:26:48.364Z,918.51
2016-12-11T06:27:16.600Z,918.52
2016-12-11T06:27:44.794Z,918.54
2016-12-11T06:28:12.929Z,918.53
2016-12-11T06:28:41.134Z,918.52
2016-12-11T06:29:09.212Z,918.5
2016-12-11T06:29:37.272Z,918.52
2016-12-11T06:30:05.566Z,918.52
2016-12-11T06:30:33.789Z,918.51
2016-12-11T06:31:01.904Z,918.56
2016-12-11T06:31:30.117Z,918.57
2016-12-11T06:32:41.409Z,918.55
2016-12-11T06:33:09.734Z,918.54
2016-12-11T06:33:38.013Z,918.52
2016-12-11T06:34:06.338Z,918.52
2016-12-11T06:34:34.637Z,918.54
2016-12-11T06:35:02.901Z,918.47
2016-12-11T06:35:31.148Z,918.5
2016-12-11T06:35:59.440Z,918.52
2016-12-11T06:36:27.678Z,918.43
2016-12-11T06:36:55.985Z,918.48
2016-12-11T06:37:24.174Z,918.41
2016-12-11T06:38:35.276Z,918.41
2016-12-11T06:39:03.608Z,918.46
2016-12-11T06:39:31.803Z,918.47
2016-12-11T06:39:59.938Z,918.44
2016-12-11T06:40:28.148Z,918.43
2016-12-11T06:40:56.226Z,918.46
2016-12-11T06:41:24.286Z,918.49